Terminal Aerodrome Forecast
Issued by NWS Atlanta, GA

Home | Current Version | Previous Version | Text Only | Print | Product List | Glossary On
Versions: 1 2 3 4 5 6 7 8 9 10 11 12 13 14 15 16 17
000
FTUS42 KFFC 262328
TAFMCN
TAF
KMCN 262328Z 2700/2724 32012G20KT P6SM BKN250
     FM270100 33008KT P6SM BKN250
     FM270600 30003KT P6SM BKN250
     FM271200 35006KT P6SM BKN025
     FM271500 35010KT P6SM SCT045 SCT200=

USA.gov is the U.S. government's official web portal to all federal, state and local government web resources and services.